Jefferson City, MO

6:43 PM CST on December 07, 2016 (GMT -0600)
Moreau River Bottoms | | Change Station

Elev 581 ft 38.52 °N, 92.14 °W | Updated 27 seconds ago

Overcast
Overcast
29.8 °F
Feels Like 26 °F
N
4.0
Wind Variable Wind from WSW

Today
High -- | Low -- °F
--% Chance of Precip.
Yesterday
High -- | Low -- °F
Precip. -- in
Pressure 30.33 in
Visibility 10.0 miles
Clouds Scattered Clouds 1900 ft
Mostly Cloudy 5500 ft
Overcast 7000 ft
Windchill 26 °F
Dew Point 24 °F
Humidity 81%
Rainfall 0.00 in
Snow Depth Not available.
7:13 AM 4:47 PM
First Quarter, 57% visible
METAR KJEF 072353Z 28008KT 10SM SCT019 BKN055 OVC070 M01/M05 A3034 RMK AO2 SLP270 60000 T10111050 10022 21011 53022
Pressure 30.33 in
Visibility 10.0 miles
Clouds Scattered Clouds 1900 ft
Mostly Cloudy 5500 ft
Overcast 7000 ft
Windchill 26 °F
Dew Point 24 °F
Humidity 81%
Rainfall 0.00 in
Snow Depth Not available.
7:13 AM 4:47 PM
First Quarter, 57% visible
METAR KJEF 072353Z 28008KT 10SM SCT019 BKN055 OVC070 M01/M05 A3034 RMK AO2 SLP270 60000 T10111050 10022 21011 53022

10-Day Weather Forecast

Almanac

Astronomy

Dec. 07, 2016 Rise Set
Actual Time
Civil Twilight
Nautical Twilight
Astronomical Twilight
Moon
Length of Visible Light
Length of Day
Tomorrow will be .
, % of the Moon is Illuminated

Today's Extremes

State Highs State Lows

Community

WunderPhotos

Upload Photos

1,956,220 photos uploaded!

WunderBlog® & News

Nearby

Air Quality

  Air Quality AQ Index Pollutant
Not available.

Snow Depth

Station Depth Elevation

Earthquake Activity

City Distance Mag. Time & Date
Minimum magnitude displayed is 2.5.

Coastal Water Temperatures

Place Temperature

Stations

Nearby Weather Stations

Station Location Temp. Windchill Dew Point Humidity Wind Precip. Elev Updated Type
                   

Watches & Warnings

There are currently no watches in effect.